Time;durP1;ratioP1;P1;durP2;ratioP2;P2;SDS_P1;SDS_P2;PMS_P1;PMS_P2;Temp;Humidity;BMP_temperature;BMP_pressure;BME280_temperature;BME280_humidity;BME280_pressure;Samples;Min_cycle;Max_cycle;Signal;HPM_P1;HPM_P2
2023/09/26 00:00:35;;;;;;;2.05;1.80;;;19.60;67.50;;;;;;5094782;28;20177;-65
2023/09/26 00:03:00;;;;;;;1.40;1.30;;;19.60;67.50;;;;;;5113525;28;20174;-66
2023/09/26 00:05:26;;;;;;;2.92;1.75;;;19.60;67.50;;;;;;5113699;28;20267;-66
2023/09/26 00:07:52;;;;;;;2.00;1.42;;;19.60;67.50;;;;;;5113068;28;20295;-65
2023/09/26 00:10:18;;;;;;;2.05;1.80;;;19.50;68.30;;;;;;5113347;28;20194;-65
2023/09/26 00:12:44;;;;;;;3.15;1.80;;;19.60;67.60;;;;;;5112996;28;20657;-66
2023/09/26 00:15:11;;;;;;;2.28;1.75;;;19.60;67.50;;;;;;5112460;28;20177;-65
2023/09/26 00:17:36;;;;;;;1.55;1.45;;;19.60;67.70;;;;;;5113403;28;20177;-65
2023/09/26 00:20:15;;;;;;;1.75;1.65;;;19.60;67.70;;;;;;5113388;28;20165;-65
2023/09/26 00:22:40;;;;;;;2.17;1.50;;;19.50;67.60;;;;;;5112677;28;20223;-65
2023/09/26 00:25:06;;;;;;;2.08;1.67;;;19.50;67.60;;;;;;5113129;28;20641;-64
2023/09/26 00:27:32;;;;;;;1.83;1.67;;;19.50;67.50;;;;;;5113244;28;20284;-65
2023/09/26 00:29:57;;;;;;;2.15;1.55;;;19.50;67.60;;;;;;5112467;28;20327;-65
2023/09/26 00:32:24;;;;;;;1.60;1.50;;;19.50;67.60;;;;;;5113459;28;20210;-65
2023/09/26 00:34:49;;;;;;;1.80;1.70;;;19.50;67.60;;;;;;5112797;28;20172;-65
2023/09/26 00:37:15;;;;;;;1.60;1.50;;;19.50;67.60;;;;;;5113182;28;20177;-65
2023/09/26 00:39:40;;;;;;;2.13;1.77;;;19.50;68.40;;;;;;5113124;28;20172;-65
2023/09/26 00:42:06;;;;;;;1.70;1.60;;;19.50;67.60;;;;;;5112182;28;20511;-65
2023/09/26 00:44:31;;;;;;;2.05;1.85;;;19.50;67.60;;;;;;5113071;28;20173;-65
2023/09/26 00:47:00;;;;;;;1.58;1.48;;;19.50;67.60;;;;;;5112986;28;20577;-65
2023/09/26 00:49:28;;;;;;;1.70;1.60;;;19.50;67.60;;;;;;5112135;28;20226;-65
2023/09/26 00:51:54;;;;;;;1.67;1.58;;;19.50;67.60;;;;;;5095186;28;20630;-64
2023/09/26 00:54:20;;;;;;;1.80;1.67;;;19.50;67.60;;;;;;5112656;28;20173;-64
2023/09/26 00:56:45;;;;;;;2.88;1.70;;;19.50;67.60;;;;;;5094236;28;20688;-64
2023/09/26 00:59:11;;;;;;;1.45;1.35;;;19.50;67.70;;;;;;5112719;28;20623;-65
2023/09/26 01:01:36;;;;;;;1.58;1.48;;;19.40;67.60;;;;;;5094747;28;20176;-65
2023/09/26 01:04:02;;;;;;;1.55;1.45;;;19.50;67.60;;;;;;5094091;28;20222;-66
2023/09/26 01:06:28;;;;;;;1.70;1.60;;;19.50;67.70;;;;;;5078201;28;20627;-66
2023/09/26 01:08:53;;;;;;;1.60;1.50;;;19.40;67.60;;;;;;5112842;28;20183;-65
2023/09/26 01:11:19;;;;;;;2.10;1.95;;;19.40;67.70;;;;;;5093875;28;20199;-65
2023/09/26 01:13:45;;;;;;;1.40;1.30;;;19.50;67.70;;;;;;5112936;28;20177;-66
2023/09/26 01:16:18;;;;;;;2.00;1.65;;;19.40;67.60;;;;;;5112924;28;20241;-66
2023/09/26 01:18:44;;;;;;;2.28;1.63;;;19.40;67.60;;;;;;5112276;28;20173;-65
2023/09/26 01:21:09;;;;;;;1.73;1.63;;;19.40;67.60;;;;;;5112519;28;20260;-65
2023/09/26 01:23:36;;;;;;;1.75;1.65;;;19.40;67.60;;;;;;5079390;28;20169;-65
2023/09/26 01:26:01;;;;;;;1.77;1.67;;;19.40;67.70;;;;;;5115833;28;20177;-65
2023/09/26 01:28:27;;;;;;;1.85;1.65;;;19.40;67.70;;;;;;5116733;28;20573;-65
2023/09/26 01:30:53;;;;;;;2.15;1.80;;;19.40;67.70;;;;;;5117068;28;20169;-65
2023/09/26 01:33:21;;;;;;;2.00;1.90;;;19.40;67.70;;;;;;5115796;28;20184;-65
2023/09/26 01:35:48;;;;;;;2.08;1.60;;;19.40;67.70;;;;;;5116723;28;20537;-65
2023/09/26 01:38:14;;;;;;;1.83;1.65;;;19.40;67.70;;;;;;5115748;28;20250;-65
2023/09/26 01:40:41;;;;;;;1.95;1.70;;;19.40;67.70;;;;;;5116532;28;20621;-64
2023/09/26 01:43:06;;;;;;;1.75;1.65;;;19.40;67.70;;;;;;5116284;28;20264;-65
2023/09/26 01:45:32;;;;;;;1.95;1.50;;;19.40;67.70;;;;;;5115249;28;20353;-65
2023/09/26 01:47:57;;;;;;;1.60;1.50;;;19.40;67.70;;;;;;5116062;28;20216;-65
2023/09/26 01:50:23;;;;;;;1.83;1.60;;;19.40;67.70;;;;;;5116162;28;20184;-64
2023/09/26 01:52:49;;;;;;;2.20;2.00;;;19.40;67.70;;;;;;5115702;28;20619;-64
2023/09/26 01:55:19;;;;;;;2.00;1.80;;;19.40;67.70;;;;;;5115926;28;20218;-63
2023/09/26 01:57:45;;;;;;;2.10;1.60;;;19.40;67.70;;;;;;5116005;28;20534;-64
2023/09/26 02:00:12;;;;;;;3.47;1.60;;;19.40;67.70;;;;;;5115475;28;20173;-65
2023/09/26 02:02:41;;;;;;;1.67;1.58;;;19.40;67.70;;;;;;5116165;28;20181;-65
2023/09/26 02:05:11;;;;;;;1.92;1.70;;;19.40;67.70;;;;;;5115954;28;20173;-65
2023/09/26 02:07:37;;;;;;;2.05;1.70;;;19.40;67.80;;;;;;5115325;28;20216;-65
2023/09/26 02:10:03;;;;;;;2.15;1.70;;;19.40;67.70;;;;;;5115962;28;20175;-64
2023/09/26 02:12:34;;;;;;;1.92;1.80;;;19.30;67.70;;;;;;5116143;28;20196;-65
2023/09/26 02:15:01;;;;;;;1.73;1.63;;;19.30;67.70;;;;;;5115362;28;20173;-65
2023/09/26 02:17:26;;;;;;;1.98;1.80;;;19.40;67.70;;;;;;5115941;28;20200;-64
2023/09/26 02:19:52;;;;;;;2.25;1.60;;;19.40;67.70;;;;;;5116020;28;20169;-65
2023/09/26 02:22:18;;;;;;;2.10;1.80;;;19.30;67.80;;;;;;5114638;28;20703;-65
2023/09/26 02:24:43;;;;;;;2.35;1.70;;;19.30;68.60;;;;;;5115627;28;20269;-65
2023/09/26 02:27:10;;;;;;;3.03;1.60;;;19.30;67.70;;;;;;5115336;28;20211;-65
2023/09/26 02:29:35;;;;;;;1.65;1.55;;;19.30;67.70;;;;;;5115046;28;20208;-65
2023/09/26 02:32:01;;;;;;;2.33;1.83;;;19.30;67.80;;;;;;5115616;28;20210;-65
2023/09/26 02:34:26;;;;;;;2.00;1.80;;;19.30;67.70;;;;;;5114335;28;20243;-65
2023/09/26 02:36:52;;;;;;;2.90;1.67;;;19.30;67.70;;;;;;5114980;28;20188;-65
2023/09/26 02:39:17;;;;;;;1.80;1.70;;;19.30;67.80;;;;;;5114705;28;20177;-64
2023/09/26 02:41:43;;;;;;;2.15;1.60;;;19.30;67.70;;;;;;5114362;28;20296;-64
2023/09/26 02:44:08;;;;;;;2.03;1.77;;;19.30;67.70;;;;;;5115270;28;20177;-65
2023/09/26 02:46:34;;;;;;;2.00;1.40;;;19.30;67.80;;;;;;5114903;28;20675;-64
2023/09/26 02:49:00;;;;;;;1.67;1.45;;;19.30;67.80;;;;;;5114374;28;20173;-65
2023/09/26 02:51:26;;;;;;;1.92;1.60;;;19.30;67.80;;;;;;5114925;28;20633;-64
2023/09/26 02:53:52;;;;;;;2.17;1.70;;;19.30;67.70;;;;;;5115371;28;20177;-64
2023/09/26 02:56:17;;;;;;;2.22;1.80;;;19.30;67.80;;;;;;5114192;28;20180;-64
2023/09/26 02:58:43;;;;;;;2.15;1.70;;;19.30;67.80;;;;;;5115067;28;20641;-64
2023/09/26 03:01:11;;;;;;;2.20;2.00;;;19.30;67.70;;;;;;5114788;28;20203;-65
2023/09/26 03:03:36;;;;;;;1.80;1.60;;;19.30;67.80;;;;;;5095930;28;20181;-65
2023/09/26 03:06:02;;;;;;;1.70;1.60;;;19.30;67.70;;;;;;5114484;28;20537;-65
2023/09/26 03:08:28;;;;;;;2.20;1.95;;;19.30;67.70;;;;;;5115084;28;20682;-65
2023/09/26 03:10:58;;;;;;;2.20;1.98;;;19.30;67.80;;;;;;5114419;28;20274;-64
2023/09/26 03:13:24;;;;;;;3.58;1.80;;;19.20;67.70;;;;;;5114793;28;20611;-65
2023/09/26 03:15:55;;;;;;;2.10;1.90;;;19.20;67.70;;;;;;5114771;28;20177;-65
2023/09/26 03:18:21;;;;;;;2.53;2.25;;;19.20;67.70;;;;;;5113748;28;20181;-65
2023/09/26 03:20:47;;;;;;;2.53;1.77;;;19.30;67.80;;;;;;5114606;28;20193;-66
2023/09/26 03:23:13;;;;;;;2.10;1.80;;;19.20;67.70;;;;;;5114281;28;20205;-65
2023/09/26 03:25:38;;;;;;;1.90;1.80;;;19.30;67.80;;;;;;5113915;28;20201;-65
2023/09/26 03:28:04;;;;;;;2.90;2.17;;;19.20;67.80;;;;;;5114292;28;20654;-66
2023/09/26 03:30:29;;;;;;;1.70;1.40;;;19.20;67.80;;;;;;5114365;28;20169;-66
2023/09/26 03:32:55;;;;;;;2.22;1.80;;;19.30;67.80;;;;;;5126245;27;20198;-65
2023/09/26 03:35:20;;;;;;;1.70;1.60;;;19.20;67.80;;;;;;5134482;27;20172;-65
2023/09/26 03:37:46;;;;;;;4.85;2.00;;;19.20;67.80;;;;;;5134240;27;20187;-65
2023/09/26 03:40:12;;;;;;;2.10;1.90;;;19.20;67.70;;;;;;5134687;27;20168;-66
2023/09/26 03:42:37;;;;;;;1.80;1.70;;;19.20;67.80;;;;;;5134269;27;20168;-66
2023/09/26 03:45:03;;;;;;;2.38;1.77;;;19.20;67.70;;;;;;5133558;27;20187;-67
2023/09/26 03:47:28;;;;;;;2.67;1.80;;;19.20;67.70;;;;;;5133858;27;20205;-66
2023/09/26 03:49:55;;;;;;;1.77;1.60;;;19.20;67.80;;;;;;5134593;27;20179;-65
2023/09/26 03:52:20;;;;;;;2.17;1.98;;;19.20;67.80;;;;;;5133707;27;20169;-65
2023/09/26 03:54:46;;;;;;;2.33;1.73;;;19.20;67.80;;;;;;5134590;27;20170;-65
2023/09/26 03:57:11;;;;;;;4.53;2.00;;;19.20;67.80;;;;;;5134148;27;20184;-64
2023/09/26 03:59:37;;;;;;;2.45;1.95;;;19.20;67.80;;;;;;5133641;27;20168;-65
2023/09/26 04:02:02;;;;;;;2.05;1.83;;;19.20;67.70;;;;;;5134163;27;20198;-65
2023/09/26 04:04:29;;;;;;;2.92;1.80;;;19.20;67.80;;;;;;5134059;27;20630;-65
2023/09/26 04:06:54;;;;;;;3.88;2.00;;;19.20;68.60;;;;;;5133519;27;20673;-65
2023/09/26 04:09:20;;;;;;;2.10;2.00;;;19.20;67.80;;;;;;5133837;27;20207;-65
2023/09/26 04:11:47;;;;;;;2.08;1.83;;;19.20;67.80;;;;;;5134298;27;20180;-65
2023/09/26 04:14:13;;;;;;;1.80;1.67;;;19.20;67.80;;;;;;5115197;27;20169;-66
2023/09/26 04:16:38;;;;;;;1.70;1.60;;;19.20;67.70;;;;;;5134065;27;20175;-65
2023/09/26 04:19:04;;;;;;;1.73;1.50;;;19.20;67.70;;;;;;5133716;27;20204;-66
2023/09/26 04:21:29;;;;;;;2.10;2.00;;;19.20;67.80;;;;;;5114929;27;20193;-65
2023/09/26 04:23:55;;;;;;;2.15;2.03;;;19.20;67.80;;;;;;5134074;27;20180;-65
2023/09/26 04:26:21;;;;;;;2.17;1.90;;;19.20;67.80;;;;;;5133667;27;20281;-65
2023/09/26 04:28:47;;;;;;;2.63;2.08;;;19.20;67.80;;;;;;5133330;27;20192;-66
2023/09/26 04:31:16;;;;;;;2.05;1.85;;;19.20;67.80;;;;;;5133673;27;20172;-65
2023/09/26 04:33:45;;;;;;;1.70;1.60;;;19.20;67.80;;;;;;5133892;27;20200;-65
2023/09/26 04:36:11;;;;;;;2.90;1.90;;;19.20;67.80;;;;;;5114390;27;20177;-65
2023/09/26 04:38:37;;;;;;;2.30;2.08;;;19.10;67.70;;;;;;5133898;27;20268;-66
2023/09/26 04:41:03;;;;;;;2.33;2.05;;;19.10;67.70;;;;;;5132969;27;20206;-66
2023/09/26 04:43:30;;;;;;;1.92;1.83;;;19.20;67.80;;;;;;5133546;27;20184;-66
2023/09/26 04:45:56;;;;;;;1.95;1.80;;;19.10;67.70;;;;;;5133533;27;20223;-66
2023/09/26 04:48:21;;;;;;;4.13;1.83;;;19.10;67.70;;;;;;5132695;27;20218;-65
2023/09/26 04:50:48;;;;;;;1.73;1.63;;;19.10;68.00;;;;;;5133624;27;20168;-65
2023/09/26 04:53:13;;;;;;;1.95;1.75;;;19.10;67.80;;;;;;5133566;27;20168;-64
2023/09/26 04:55:39;;;;;;;2.20;1.90;;;19.10;67.80;;;;;;5133000;28;20165;-65
2023/09/26 04:58:04;;;;;;;2.08;1.90;;;19.10;67.70;;;;;;5133056;27;20160;-65
2023/09/26 05:00:31;;;;;;;2.25;1.92;;;19.10;67.70;;;;;;5133466;28;20183;-65
2023/09/26 05:02:56;;;;;;;2.20;2.08;;;19.10;67.70;;;;;;5133126;28;20204;-65
2023/09/26 05:05:22;;;;;;;2.92;2.13;;;19.10;67.70;;;;;;5133347;28;20199;-66
2023/09/26 05:07:49;;;;;;;1.95;1.75;;;19.10;67.80;;;;;;5133548;28;20227;-65
2023/09/26 05:10:14;;;;;;;3.15;2.28;;;19.20;67.80;;;;;;5132554;28;20173;-65
2023/09/26 05:12:40;;;;;;;2.53;2.00;;;19.10;67.70;;;;;;5133376;28;20164;-65
2023/09/26 05:15:13;;;;;;;2.85;2.10;;;19.10;67.80;;;;;;5133108;28;20643;-65
2023/09/26 05:17:46;;;;;;;3.03;1.90;;;19.10;67.70;;;;;;5132896;28;20224;-66
2023/09/26 05:20:12;;;;;;;2.70;2.15;;;19.10;67.70;;;;;;5133506;28;20190;-65
2023/09/26 05:22:43;;;;;;;2.30;1.88;;;19.10;67.70;;;;;;5133562;28;20536;-65
2023/09/26 05:25:09;;;;;;;2.10;2.00;;;19.10;67.80;;;;;;5132556;28;20187;-65
2023/09/26 05:27:36;;;;;;;2.40;2.17;;;19.10;67.80;;;;;;5133270;28;20219;-65
2023/09/26 05:30:02;;;;;;;1.83;1.73;;;19.10;67.80;;;;;;5132918;28;20221;-65
2023/09/26 05:32:27;;;;;;;3.03;2.35;;;19.10;67.70;;;;;;5132614;28;20176;-65
2023/09/26 05:34:53;;;;;;;1.88;1.73;;;19.10;67.80;;;;;;5133529;28;20175;-64
2023/09/26 05:37:18;;;;;;;2.15;2.05;;;19.10;67.70;;;;;;5132343;28;20353;-65
2023/09/26 05:39:44;;;;;;;2.03;1.80;;;19.00;67.60;;;;;;5133321;28;20544;-65
2023/09/26 05:42:10;;;;;;;2.38;2.17;;;19.00;67.60;;;;;;5132971;28;20571;-65
2023/09/26 05:44:36;;;;;;;2.42;2.15;;;19.00;67.60;;;;;;5132583;28;20165;-65
2023/09/26 05:47:02;;;;;;;1.95;1.85;;;19.10;67.70;;;;;;5132657;28;20236;-65
2023/09/26 05:49:28;;;;;;;2.65;1.98;;;19.10;67.70;;;;;;5133111;28;20168;-65
2023/09/26 05:51:53;;;;;;;2.25;2.05;;;19.10;67.70;;;;;;5132474;28;20180;-65
2023/09/26 05:54:19;;;;;;;2.58;2.10;;;19.10;67.70;;;;;;5132574;28;20169;-64
2023/09/26 05:56:44;;;;;;;2.58;1.80;;;19.10;67.60;;;;;;5132944;28;20173;-64
2023/09/26 05:59:10;;;;;;;2.17;1.95;;;19.10;67.70;;;;;;5132164;28;20263;-64
2023/09/26 06:01:36;;;;;;;1.77;1.67;;;19.10;67.60;;;;;;5133186;28;20259;-64
2023/09/26 06:04:01;;;;;;;1.92;1.70;;;19.10;67.60;;;;;;5133030;28;20203;-65
2023/09/26 06:06:27;;;;;;;1.88;1.73;;;19.10;67.70;;;;;;5132272;28;20256;-65
2023/09/26 06:08:53;;;;;;;2.10;1.70;;;19.10;67.50;;;;;;5133561;28;20194;-64
2023/09/26 06:11:19;;;;;;;2.33;2.17;;;19.00;67.50;;;;;;5135479;27;20263;-65
2023/09/26 06:13:45;;;;;;;2.55;2.35;;;19.10;67.70;;;;;;5136150;27;20175;-64
2023/09/26 06:16:11;;;;;;;2.17;1.90;;;19.10;67.70;;;;;;5136167;27;20642;-64
2023/09/26 06:18:36;;;;;;;1.88;1.77;;;19.10;67.60;;;;;;5136687;27;20176;-64
2023/09/26 06:21:04;;;;;;;2.33;2.13;;;19.10;67.60;;;;;;5135865;27;20241;-64
2023/09/26 06:23:31;;;;;;;2.20;2.05;;;19.10;67.50;;;;;;5136745;27;20177;-64
2023/09/26 06:25:58;;;;;;;2.53;2.20;;;19.10;67.50;;;;;;5136809;27;20608;-64
2023/09/26 06:28:24;;;;;;;2.33;2.13;;;19.10;67.50;;;;;;5135722;27;20227;-64
2023/09/26 06:30:49;;;;;;;2.10;2.00;;;19.00;67.40;;;;;;5136304;27;20196;-64
2023/09/26 06:33:16;;;;;;;1.85;1.75;;;19.10;67.50;;;;;;5135706;27;20217;-63
2023/09/26 06:35:41;;;;;;;2.22;1.77;;;19.00;67.40;;;;;;5135462;27;20177;-64
2023/09/26 06:38:07;;;;;;;2.47;2.28;;;19.10;67.50;;;;;;5135739;27;20229;-64
2023/09/26 06:40:32;;;;;;;2.65;1.88;;;19.10;67.50;;;;;;5135371;27;20211;-64
2023/09/26 06:43:00;;;;;;;2.30;1.98;;;19.10;67.40;;;;;;5135758;27;20200;-65
2023/09/26 06:45:28;;;;;;;2.38;2.17;;;19.10;67.50;;;;;;5135748;27;20591;-65
2023/09/26 06:47:54;;;;;;;2.22;2.03;;;19.10;67.40;;;;;;5135306;27;20208;-65
2023/09/26 06:50:19;;;;;;;3.28;2.20;;;19.10;67.50;;;;;;5135451;27;20210;-64
2023/09/26 06:52:45;;;;;;;2.00;1.90;;;19.10;67.50;;;;;;5135769;27;20172;-63
2023/09/26 06:55:11;;;;;;;2.40;2.20;;;19.10;67.50;;;;;;5134706;27;20230;-64
2023/09/26 06:57:39;;;;;;;2.58;2.22;;;19.10;67.40;;;;;;5135843;27;20267;-64
2023/09/26 07:00:06;;;;;;;2.88;2.03;;;19.10;67.40;;;;;;5135636;27;20558;-64
2023/09/26 07:02:31;;;;;;;2.17;1.98;;;19.10;67.40;;;;;;5134755;27;20514;-65
2023/09/26 07:04:57;;;;;;;2.00;1.90;;;19.10;67.40;;;;;;5135665;27;20186;-65
2023/09/26 07:07:23;;;;;;;2.67;2.47;;;19.10;67.40;;;;;;5135361;27;20208;-65
2023/09/26 07:09:49;;;;;;;3.25;2.25;;;19.10;67.40;;;;;;5134738;27;20165;-65
2023/09/26 07:12:14;;;;;;;2.42;1.80;;;19.10;67.40;;;;;;5135285;27;20535;-64
2023/09/26 07:14:40;;;;;;;2.90;2.63;;;19.10;67.30;;;;;;5122072;27;20256;-65
2023/09/26 07:17:08;;;;;;;2.17;2.03;;;19.10;67.30;;;;;;5131757;27;20241;-64
2023/09/26 07:19:33;;;;;;;3.20;2.30;;;19.20;67.30;;;;;;5114700;28;20177;-64
2023/09/26 07:21:59;;;;;;;2.33;2.13;;;19.20;67.30;;;;;;5122148;27;20176;-65
2023/09/26 07:24:25;;;;;;;2.35;2.03;;;19.20;67.30;;;;;;5134237;27;20627;-64
2023/09/26 07:26:51;;;;;;;2.38;2.17;;;19.20;67.30;;;;;;5135166;27;20200;-64
2023/09/26 07:29:16;;;;;;;2.78;2.55;;;19.20;67.30;;;;;;5134909;27;20190;-64
2023/09/26 07:31:42;;;;;;;3.10;2.10;;;19.20;67.30;;;;;;5116582;27;20260;-64
2023/09/26 07:34:07;;;;;;;2.10;1.90;;;19.20;67.30;;;;;;5114258;28;20538;-64
2023/09/26 07:36:34;;;;;;;2.75;2.17;;;19.20;67.30;;;;;;5114272;28;20173;-64
2023/09/26 07:38:59;;;;;;;2.70;2.50;;;19.30;67.40;;;;;;5112800;28;20170;-65
2023/09/26 07:41:25;;;;;;;3.40;2.10;;;19.30;67.30;;;;;;5114095;28;20200;-64
2023/09/26 07:43:50;;;;;;;3.28;2.17;;;19.30;67.20;;;;;;5113860;28;20520;-65
2023/09/26 07:46:16;;;;;;;3.58;2.15;;;19.40;67.20;;;;;;5113474;28;20585;-65
2023/09/26 07:48:42;;;;;;;4.43;2.47;;;19.40;67.20;;;;;;5114240;28;20256;-65
2023/09/26 07:51:08;;;;;;;3.97;2.47;;;19.40;67.20;;;;;;5113089;28;20258;-64
2023/09/26 07:53:34;;;;;;;2.95;2.20;;;19.40;67.20;;;;;;5113736;28;20176;-63
2023/09/26 07:55:59;;;;;;;2.25;2.05;;;19.30;67.30;;;;;;5113398;28;20173;-63
2023/09/26 07:58:25;;;;;;;2.60;2.40;;;19.40;67.40;;;;;;5113006;28;20191;-64
2023/09/26 08:00:52;;;;;;;3.08;2.40;;;19.40;67.40;;;;;;5113724;28;20169;-64
2023/09/26 08:03:18;;;;;;;3.40;2.30;;;19.40;67.40;;;;;;5113429;28;20185;-64
2023/09/26 08:05:44;;;;;;;2.67;2.20;;;19.40;67.40;;;;;;5113117;28;20176;-63
2023/09/26 08:08:09;;;;;;;3.47;2.50;;;19.40;67.40;;;;;;5113317;28;20211;-65
2023/09/26 08:10:38;;;;;;;6.10;3.13;;;19.40;67.30;;;;;;5113847;28;20165;-64
2023/09/26 08:13:05;;;;;;;5.57;2.72;;;19.40;67.20;;;;;;5112729;28;20183;-64
2023/09/26 08:15:31;;;;;;;3.08;2.47;;;19.50;67.30;;;;;;5113433;28;20165;-64
2023/09/26 08:17:57;;;;;;;5.88;2.53;;;19.40;67.20;;;;;;5113508;28;20184;-64
2023/09/26 08:20:24;;;;;;;3.55;2.40;;;19.50;67.30;;;;;;5112740;28;20180;-64
2023/09/26 08:22:49;;;;;;;2.78;2.10;;;19.40;67.20;;;;;;5113543;28;20192;-64
2023/09/26 08:25:15;;;;;;;3.00;2.22;;;19.50;67.30;;;;;;5113105;28;20674;-64
2023/09/26 08:27:41;;;;;;;3.92;2.47;;;19.50;67.30;;;;;;5112791;28;20241;-64
2023/09/26 08:30:08;;;;;;;2.83;2.50;;;19.50;67.30;;;;;;5113042;28;20179;-64
2023/09/26 08:32:33;;;;;;;4.03;2.70;;;19.50;67.30;;;;;;5112993;28;20177;-64
2023/09/26 08:34:59;;;;;;;2.92;2.03;;;19.50;67.30;;;;;;5112341;28;20165;-64
2023/09/26 08:37:25;;;;;;;4.63;2.33;;;19.50;67.40;;;;;;5113164;28;20209;-64
2023/09/26 08:39:51;;;;;;;3.20;2.50;;;19.50;67.40;;;;;;5113539;28;20244;-64
2023/09/26 08:42:27;;;;;;;3.97;2.70;;;19.50;67.30;;;;;;5112081;28;20180;-64
2023/09/26 08:44:54;;;;;;;3.38;2.70;;;19.50;67.40;;;;;;5096041;28;20274;-65
2023/09/26 08:47:26;;;;;;;2.70;2.40;;;19.50;67.30;;;;;;5093809;28;20251;-65
2023/09/26 08:49:53;;;;;;;4.53;2.95;;;19.50;67.30;;;;;;5113156;28;20173;-64
2023/09/26 08:52:23;;;;;;;3.83;2.60;;;19.60;67.30;;;;;;5113039;28;20291;-64
2023/09/26 08:54:49;;;;;;;4.53;2.80;;;19.50;67.20;;;;;;5095062;28;20177;-64
2023/09/26 08:57:16;;;;;;;5.03;2.60;;;19.60;67.20;;;;;;5094708;28;20169;-64
2023/09/26 08:59:42;;;;;;;2.90;2.70;;;19.60;67.20;;;;;;5113312;28;20225;-64
2023/09/26 09:02:08;;;;;;;3.22;2.90;;;19.50;67.20;;;;;;5094087;28;20215;-64
2023/09/26 09:04:34;;;;;;;2.80;2.42;;;19.60;67.20;;;;;;5095079;28;20173;-64
2023/09/26 09:07:02;;;;;;;3.55;2.33;;;19.60;67.20;;;;;;5094774;28;20564;-64
2023/09/26 09:09:28;;;;;;;3.22;2.40;;;19.60;67.10;;;;;;5112228;28;20165;-65
2023/09/26 09:11:54;;;;;;;5.93;3.40;;;19.70;67.10;;;;;;5113227;28;20176;-65
2023/09/26 09:14:32;;;;;;;8.10;3.35;;;19.70;67.10;;;;;;5112457;28;20169;-63
2023/09/26 09:16:58;;;;;;;5.53;3.00;;;19.70;67.40;;;;;;5111987;28;20194;-63
2023/09/26 09:19:46;;;;;;;4.07;2.92;;;19.80;66.90;;;;;;5112656;28;20184;-64
2023/09/26 09:22:17;;;;;;;3.83;3.00;;;19.80;67.20;;;;;;5112812;28;20286;-63
2023/09/26 09:24:43;;;;;;;3.30;2.67;;;19.90;67.00;;;;;;5112664;28;20172;-65
2023/09/26 09:27:09;;;;;;;3.22;2.70;;;19.80;67.10;;;;;;5112758;28;20220;-64
2023/09/26 09:29:35;;;;;;;4.35;2.97;;;19.90;67.30;;;;;;5111907;28;20177;-64
2023/09/26 09:32:01;;;;;;;6.30;2.92;;;19.80;67.30;;;;;;5112807;28;20265;-64
2023/09/26 09:34:27;;;;;;;4.80;3.00;;;19.80;67.40;;;;;;5112790;28;20260;-63
2023/09/26 09:36:56;;;;;;;3.85;2.70;;;19.90;67.50;;;;;;5112175;28;20260;-62
2023/09/26 09:39:22;;;;;;;7.00;2.47;;;20.00;67.50;;;;;;5112255;28;20184;-63
2023/09/26 09:41:48;;;;;;;4.55;2.95;;;20.00;67.50;;;;;;5094760;28;20222;-64
2023/09/26 09:44:14;;;;;;;3.67;2.88;;;20.10;68.20;;;;;;5111648;28;20178;-64
2023/09/26 09:46:40;;;;;;;3.20;2.75;;;20.00;67.20;;;;;;5115480;28;20265;-63
2023/09/26 09:49:13;;;;;;;4.95;2.90;;;20.10;67.20;;;;;;5098060;28;20177;-64
2023/09/26 09:51:43;;;;;;;4.03;3.10;;;20.10;67.00;;;;;;5115870;28;20305;-63
2023/09/26 09:54:12;;;;;;;4.00;2.75;;;20.20;67.00;;;;;;5116182;28;20643;-63
2023/09/26 09:56:38;;;;;;;6.68;3.17;;;20.20;67.00;;;;;;5116429;28;20650;-63
2023/09/26 09:59:05;;;;;;;4.70;2.85;;;20.20;66.90;;;;;;5115501;28;20180;-63
2023/09/26 10:01:33;;;;;;;3.55;2.88;;;20.20;66.80;;;;;;5098292;28;20172;-60
2023/09/26 10:03:59;;;;;;;3.30;2.70;;;20.30;67.00;;;;;;5098241;28;20181;-66
2023/09/26 10:06:24;;;;;;;4.03;2.95;;;20.30;66.90;;;;;;5097147;28;20218;-65
2023/09/26 10:08:50;;;;;;;4.35;3.05;;;20.30;67.00;;;;;;5116095;28;20268;-66
2023/09/26 10:11:16;;;;;;;3.38;3.08;;;20.30;67.10;;;;;;5115644;28;20169;-66
2023/09/26 10:13:42;;;;;;;5.53;2.90;;;20.20;67.00;;;;;;5115351;28;20188;-66
2023/09/26 10:16:11;;;;;;;5.05;2.90;;;20.30;67.10;;;;;;5115735;28;20165;-66
2023/09/26 10:18:38;;;;;;;4.13;2.45;;;20.30;67.00;;;;;;5115240;28;20185;-66
2023/09/26 10:21:07;;;;;;;3.95;2.70;;;20.40;67.00;;;;;;5115870;28;20200;-66
2023/09/26 10:23:33;;;;;;;5.82;2.80;;;20.40;67.10;;;;;;5097546;28;20209;-66
2023/09/26 10:26:01;;;;;;;3.47;2.58;;;20.40;67.10;;;;;;5115271;28;20204;-67
2023/09/26 10:28:26;;;;;;;3.40;2.70;;;20.50;67.10;;;;;;5115817;28;20212;-66
2023/09/26 10:30:55;;;;;;;6.60;3.28;;;20.40;66.90;;;;;;5115841;28;20169;-65
2023/09/26 10:33:20;;;;;;;4.10;2.90;;;20.50;67.00;;;;;;5114549;28;20169;-65
2023/09/26 10:35:46;;;;;;;3.17;2.80;;;20.50;67.00;;;;;;5115494;28;20177;-64
2023/09/26 10:38:19;;;;;;;2.92;2.60;;;20.50;66.90;;;;;;5115183;28;20179;-65
2023/09/26 10:40:45;;;;;;;3.03;2.60;;;20.50;67.00;;;;;;5114956;28;20201;-65
2023/09/26 10:43:11;;;;;;;3.03;2.72;;;20.40;67.00;;;;;;5115380;28;20177;-65
2023/09/26 10:45:41;;;;;;;4.43;2.72;;;20.50;67.00;;;;;;5115312;28;20231;-65
2023/09/26 10:48:07;;;;;;;3.00;2.67;;;20.50;67.10;;;;;;5114344;28;20296;-66
2023/09/26 10:50:32;;;;;;;4.35;2.80;;;20.50;67.00;;;;;;5115215;28;20169;-67
2023/09/26 10:52:58;;;;;;;4.75;3.00;;;20.50;67.10;;;;;;5115060;28;20210;-65
2023/09/26 10:55:24;;;;;;;6.05;3.88;;;20.50;67.20;;;;;;5096335;28;20177;-65
2023/09/26 10:57:50;;;;;;;7.03;3.50;;;20.50;67.30;;;;;;5096619;28;20183;-65
2023/09/26 11:00:17;;;;;;;6.22;3.40;;;20.50;67.30;;;;;;5114913;28;20173;-65
2023/09/26 11:02:43;;;;;;;9.55;3.90;;;20.50;67.30;;;;;;5114314;28;20677;-66
2023/09/26 11:05:10;;;;;;;9.15;4.28;;;20.50;67.30;;;;;;5114786;28;20619;-67
2023/09/26 11:07:37;;;;;;;7.07;4.25;;;20.50;67.40;;;;;;5114827;28;20216;-66
2023/09/26 11:10:03;;;;;;;7.82;4.35;;;20.50;67.40;;;;;;5113899;28;20631;-65
2023/09/26 11:12:32;;;;;;;8.45;4.72;;;20.50;67.50;;;;;;5115019;28;20204;-64
2023/09/26 11:15:00;;;;;;;6.22;4.32;;;20.50;68.40;;;;;;5114035;28;20177;-65
2023/09/26 11:17:29;;;;;;;7.22;4.38;;;20.50;67.50;;;;;;5114669;28;20196;-65
2023/09/26 11:19:58;;;;;;;6.18;4.00;;;20.50;67.50;;;;;;5114672;28;20168;-65
2023/09/26 11:22:24;;;;;;;7.20;4.13;;;20.60;67.50;;;;;;5114036;28;20173;-65
2023/09/26 11:25:06;;;;;;;6.30;3.53;;;20.60;67.40;;;;;;5114810;28;20267;-64
2023/09/26 11:27:32;;;;;;;10.93;4.43;;;20.60;67.40;;;;;;5114565;28;20209;-65
2023/09/26 11:30:01;;;;;;;6.00;3.88;;;20.60;67.30;;;;;;5095545;28;20169;-64
2023/09/26 11:32:27;;;;;;;7.22;3.80;;;20.70;67.30;;;;;;5114460;28;20548;-65
2023/09/26 11:34:52;;;;;;;9.40;3.58;;;20.70;67.20;;;;;;5096596;28;20184;-64
2023/09/26 11:37:18;;;;;;;4.60;3.25;;;20.70;67.10;;;;;;5113465;28;20246;-65
2023/09/26 11:39:50;;;;;;;8.77;3.90;;;20.70;67.00;;;;;;5114268;28;20165;-66
2023/09/26 11:42:17;;;;;;;5.50;3.72;;;20.70;67.10;;;;;;5114094;28;20237;-66
2023/09/26 11:44:55;;;;;;;6.95;3.90;;;20.70;67.20;;;;;;5113529;28;20173;-66
2023/09/26 11:47:21;;;;;;;9.73;4.07;;;20.70;67.20;;;;;;5113502;28;20606;-66
2023/09/26 11:49:48;;;;;;;5.60;3.05;;;20.70;67.20;;;;;;5114248;28;20256;-65
2023/09/26 11:52:14;;;;;;;7.18;3.22;;;20.70;67.10;;;;;;5113060;28;20188;-66
2023/09/26 11:54:39;;;;;;;6.47;3.28;;;20.70;67.20;;;;;;5095884;28;20180;-65
2023/09/26 11:57:05;;;;;;;7.53;4.00;;;20.70;67.20;;;;;;5113133;28;20180;-65
2023/09/26 11:59:30;;;;;;;7.22;3.55;;;20.60;67.10;;;;;;5114325;28;20169;-65
2023/09/26 12:01:58;;;;;;;8.02;3.63;;;20.70;67.20;;;;;;5113936;28;20263;-65
2023/09/26 12:04:24;;;;;;;4.07;3.03;;;20.70;67.10;;;;;;5095283;28;20999;-66
2023/09/26 12:06:50;;;;;;;4.88;3.17;;;20.60;67.10;;;;;;5113838;28;20225;-65
2023/09/26 12:09:19;;;;;;;6.85;3.28;;;20.60;67.10;;;;;;5112747;28;20520;-65
2023/09/26 12:11:49;;;;;;;5.78;3.47;;;20.60;67.10;;;;;;5111911;28;20216;-65
2023/09/26 12:14:16;;;;;;;5.78;2.90;;;20.60;67.10;;;;;;5113224;28;20184;-66
2023/09/26 12:16:42;;;;;;;6.70;2.83;;;20.70;67.10;;;;;;5113872;28;20185;-65
2023/09/26 12:19:08;;;;;;;5.45;3.30;;;20.60;66.90;;;;;;5112790;28;20183;-65
2023/09/26 12:21:34;;;;;;;4.97;3.05;;;20.60;66.80;;;;;;5113495;28;20177;-66
2023/09/26 12:23:59;;;;;;;7.43;3.67;;;20.70;66.80;;;;;;5113270;28;20188;-65
2023/09/26 12:26:25;;;;;;;5.80;3.45;;;20.70;66.80;;;;;;5112618;28;20190;-65
2023/09/26 12:28:50;;;;;;;4.13;3.05;;;20.70;66.70;;;;;;5113758;28;20178;-65
2023/09/26 12:31:16;;;;;;;4.97;2.72;;;20.70;66.50;;;;;;5113357;28;20173;-65
2023/09/26 12:33:42;;;;;;;5.63;3.10;;;20.70;66.50;;;;;;5094767;28;20184;-65
2023/09/26 12:36:08;;;;;;;4.82;3.20;;;20.80;66.50;;;;;;5113157;28;20173;-65
2023/09/26 12:38:33;;;;;;;5.18;3.38;;;20.80;66.50;;;;;;5113321;28;20530;-65
2023/09/26 12:40:59;;;;;;;4.30;2.85;;;20.80;66.50;;;;;;5112389;28;20600;-65
2023/09/26 12:43:24;;;;;;;5.28;2.95;;;20.70;66.40;;;;;;5112856;28;20168;-65